createdAt,value
2018-05-02T10:27:12.957Z,50.00
2018-05-02T10:29:41.070Z,49.40
2018-05-02T10:32:13.126Z,51.30
2018-05-02T10:34:41.197Z,52.10
2018-05-02T10:37:09.305Z,56.30
2018-05-02T10:39:37.385Z,57.00
2018-05-02T10:42:05.458Z,53.80
2018-05-02T10:44:33.544Z,48.90
2018-05-02T10:47:01.722Z,48.90
2018-05-02T10:49:29.797Z,47.00
2018-05-02T10:51:57.903Z,50.60
2018-05-02T10:54:27.532Z,49.50
2018-05-02T10:56:55.648Z,49.40
2018-05-02T10:59:24.523Z,54.10
2018-05-02T11:01:52.615Z,54.10
2018-05-02T11:04:21.523Z,51.30
2018-05-02T11:06:50.360Z,50.90
2018-05-02T11:09:18.492Z,50.90
2018-05-02T11:11:46.574Z,50.00
2018-05-02T11:14:14.757Z,47.10
2018-05-02T11:16:42.884Z,50.40
2018-05-02T11:19:10.993Z,50.60
2018-05-02T11:21:39.135Z,52.50
2018-05-02T11:24:07.225Z,50.80
2018-05-02T11:26:36.102Z,49.70
2018-05-02T11:29:04.205Z,49.60
2018-05-02T11:31:33.143Z,47.80
2018-05-02T11:34:01.245Z,44.50
2018-05-02T11:36:29.339Z,44.60
2018-05-02T11:38:57.454Z,46.50
2018-05-02T11:41:25.557Z,48.00
2018-05-02T11:43:54.413Z,52.10
2018-05-02T11:46:22.502Z,52.00
2018-05-02T11:48:50.600Z,48.70
2018-05-02T11:51:18.699Z,44.50
2018-05-02T11:53:46.797Z,44.70
2018-05-02T11:56:15.634Z,39.30
2018-05-02T11:58:43.780Z,39.20
2018-05-02T12:01:11.913Z,40.70
2018-05-02T12:06:10.152Z,39.30
2018-05-02T12:08:38.215Z,39.20
2018-05-02T12:11:06.299Z,38.60
2018-05-02T12:13:34.368Z,41.80
2018-05-02T12:16:02.510Z,41.70
2018-05-02T12:18:30.569Z,39.30
2018-05-02T12:20:58.683Z,41.00
2018-05-02T12:23:26.767Z,39.90
2018-05-02T12:25:55.193Z,42.20
2018-05-02T12:28:23.286Z,45.10
2018-05-02T12:30:51.487Z,46.40
2018-05-02T12:33:19.582Z,42.70
2018-05-02T12:35:47.690Z,41.50
2018-05-02T12:38:15.788Z,42.80
2018-05-02T12:40:43.889Z,45.20
2018-05-02T12:43:12.759Z,44.90
2018-05-02T12:45:40.904Z,44.80
2018-05-02T12:48:08.987Z,45.80
2018-05-02T12:50:37.129Z,45.30
2018-05-02T12:53:06.742Z,44.00
2018-05-02T12:55:34.843Z,44.00
2018-05-02T12:58:03.713Z,44.30
2018-05-02T13:00:31.803Z,44.20
2018-05-02T13:02:59.926Z,45.40
2018-05-02T13:05:28.808Z,44.80
2018-05-02T13:07:56.896Z,44.80
2018-05-02T13:10:25.029Z,47.00
2018-05-02T13:12:53.106Z,45.50
2018-05-02T13:15:21.209Z,43.50
2018-05-02T13:17:49.303Z,43.20
2018-05-02T13:20:17.398Z,43.40
2018-05-02T13:22:45.516Z,45.80
2018-05-02T13:25:13.603Z,46.00
2018-05-02T13:27:42.505Z,48.80
2018-05-02T13:30:11.359Z,50.60
2018-05-02T13:32:39.480Z,50.50
2018-05-02T13:35:07.595Z,48.80
2018-05-02T13:37:35.709Z,49.00
2018-05-02T13:40:03.811Z,48.20
2018-05-02T13:47:30.747Z,49.30
2018-05-02T13:49:58.828Z,49.80
2018-05-02T13:52:28.446Z,51.20
2018-05-02T13:54:56.527Z,51.20
2018-05-02T13:57:24.702Z,50.50
2018-05-02T13:59:52.800Z,49.30
2018-05-02T14:02:20.896Z,50.00
2018-05-02T14:04:49.049Z,50.00
2018-05-02T14:07:17.131Z,49.60
2018-05-02T14:09:45.268Z,51.10
2018-05-02T14:12:14.107Z,52.10
2018-05-02T14:14:42.226Z,51.30
2018-05-02T14:17:10.360Z,50.80
2018-05-02T14:19:38.490Z,51.60
2018-05-02T14:22:08.735Z,51.50
2018-05-02T14:24:36.899Z,51.50
2018-05-02T14:27:04.989Z,49.50
2018-05-02T14:29:34.201Z,52.30
2018-05-02T14:32:02.294Z,52.70
2018-05-02T14:34:30.386Z,52.60
2018-05-02T14:36:58.489Z,51.50
2018-05-02T14:39:27.369Z,51.20
2018-05-02T14:41:55.534Z,51.20
2018-05-02T14:44:23.548Z,52.30
2018-05-02T14:46:51.651Z,52.80
2018-05-02T14:49:20.515Z,52.70
2018-05-02T14:51:48.619Z,52.60
2018-05-02T14:54:17.518Z,53.50
2018-05-02T14:56:45.603Z,53.50
2018-05-02T14:59:13.698Z,53.40
2018-05-02T15:01:41.821Z,50.90
2018-05-02T15:04:09.971Z,49.70
2018-05-02T15:06:38.051Z,51.00
2018-05-02T15:09:06.188Z,53.00
2018-05-02T15:11:34.280Z,53.50
2018-05-02T15:14:02.368Z,53.10
2018-05-02T15:16:30.484Z,52.20
2018-05-02T15:18:59.434Z,52.00
2018-05-02T15:21:27.724Z,51.90
2018-05-02T15:23:56.571Z,51.00
2018-05-02T15:26:24.694Z,50.90
2018-05-02T15:28:52.826Z,51.20
2018-05-02T15:31:20.932Z,53.40
2018-05-02T15:33:49.797Z,55.40
2018-05-02T15:36:17.899Z,55.20
2018-05-02T15:38:46.072Z,55.40
2018-05-02T15:41:14.160Z,55.80
2018-05-02T15:43:42.239Z,55.10
2018-05-02T15:46:10.379Z,55.40
2018-05-02T15:48:39.287Z,56.00
2018-05-02T15:51:08.152Z,57.00
2018-05-02T15:53:36.253Z,56.90
2018-05-02T15:56:04.332Z,57.80
2018-05-02T15:58:32.450Z,57.60
2018-05-02T16:01:01.308Z,57.00
2018-05-02T16:03:29.410Z,56.90
2018-05-02T16:05:58.277Z,56.90
2018-05-02T16:08:26.384Z,57.00
2018-05-02T16:10:54.502Z,56.50
2018-05-02T16:13:23.340Z,57.80
2018-05-02T16:15:51.442Z,57.80
2018-05-02T16:18:19.580Z,58.00
2018-05-02T16:20:48.434Z,57.70
2018-05-02T16:23:16.567Z,57.60
2018-05-02T16:25:45.430Z,58.20
2018-05-02T16:28:13.524Z,58.10
2018-05-02T16:30:41.662Z,58.30
2018-05-02T16:33:09.827Z,58.20
2018-05-02T16:35:37.857Z,58.00
2018-05-02T16:38:05.958Z,58.20
2018-05-02T16:40:34.113Z,58.60
2018-05-02T16:43:02.268Z,59.10
2018-05-02T16:45:30.394Z,59.00
2018-05-02T16:47:58.492Z,60.60
2018-05-02T16:50:26.596Z,62.00
2018-05-02T16:52:54.697Z,62.10
2018-05-02T16:55:22.817Z,61.60
2018-05-02T16:57:50.887Z,61.60
2018-05-02T17:00:19.791Z,62.20
2018-05-02T17:02:47.899Z,62.10
2018-05-02T17:05:15.997Z,62.30
2018-05-02T17:07:44.099Z,61.70
2018-05-02T17:10:12.193Z,62.00
2018-05-02T17:12:40.291Z,62.20
2018-05-02T17:15:09.184Z,63.30
2018-05-02T17:17:37.326Z,62.50
2018-05-02T17:20:05.397Z,62.80
2018-05-02T17:22:33.498Z,63.20
2018-05-02T17:25:01.575Z,64.70
2018-05-02T17:27:29.648Z,64.20
2018-05-02T17:29:57.775Z,64.00
2018-05-02T17:32:26.905Z,63.60
2018-05-02T17:34:55.014Z,64.40
2018-05-02T17:37:23.094Z,64.40
2018-05-02T17:39:51.966Z,65.70
2018-05-02T17:42:20.055Z,65.60
2018-05-02T17:44:48.169Z,66.30
2018-05-02T17:47:17.036Z,67.50
2018-05-02T17:49:45.127Z,67.40
2018-05-02T17:52:13.228Z,68.80
2018-05-02T17:54:41.347Z,69.70
2018-05-02T17:57:09.466Z,70.00
2018-05-02T17:59:37.617Z,71.50
2018-05-02T18:02:05.718Z,71.40
2018-05-02T18:04:33.830Z,71.80
2018-05-02T18:07:02.007Z,71.30
2018-05-02T18:09:30.124Z,71.50
2018-05-02T18:11:58.237Z,71.70
2018-05-02T18:14:26.344Z,72.20
2018-05-02T18:16:54.422Z,71.80
2018-05-02T18:19:22.526Z,72.40
2018-05-02T18:21:50.629Z,72.20
2018-05-02T18:24:18.743Z,72.00
2018-05-02T18:26:46.874Z,73.20
2018-05-02T18:29:15.000Z,73.30
2018-05-02T18:31:43.138Z,75.20
2018-05-02T18:34:11.228Z,74.60
2018-05-02T18:36:39.324Z,75.00
2018-05-02T18:39:07.426Z,74.80
2018-05-02T18:41:35.595Z,75.40
2018-05-02T18:44:03.680Z,76.10
2018-05-02T18:46:31.791Z,75.50
2018-05-02T18:48:59.893Z,76.00
2018-05-02T18:51:29.351Z,75.90
2018-05-02T18:53:57.469Z,75.90
2018-05-02T18:56:25.581Z,75.80
2018-05-02T18:58:54.457Z,75.60
2018-05-02T19:01:22.575Z,75.50
2018-05-02T19:03:50.690Z,75.70
2018-05-02T19:06:19.536Z,75.70
2018-05-02T19:08:47.632Z,75.60
2018-05-02T19:11:16.547Z,76.50
2018-05-02T19:13:51.029Z,76.80
2018-05-02T19:16:19.167Z,76.80
2018-05-02T19:18:53.789Z,78.60
2018-05-02T19:21:21.862Z,78.50
2018-05-02T19:23:49.973Z,79.90
2018-05-02T19:26:24.636Z,81.20
2018-05-02T19:28:52.742Z,81.00
2018-05-02T19:31:26.706Z,81.60
2018-05-02T19:33:54.802Z,85.10
2018-05-02T19:36:23.725Z,86.00
2018-05-02T19:38:52.653Z,86.00
2018-05-02T19:41:26.350Z,86.10
2018-05-02T19:44:00.103Z,87.90
2018-05-02T19:46:28.188Z,87.80
2018-05-02T19:48:56.312Z,89.30
2018-05-02T19:51:30.877Z,91.20
2018-05-02T19:53:58.969Z,91.00
2018-05-02T19:56:27.058Z,90.50
2018-05-02T19:58:55.122Z,90.90
2018-05-02T20:01:29.812Z,90.40
2018-05-02T20:03:57.941Z,90.40
2018-05-02T20:06:26.136Z,90.70
2018-05-02T20:08:59.896Z,91.00
2018-05-02T20:11:33.809Z,91.00
2018-05-02T20:14:05.534Z,91.60
2018-05-02T20:16:34.390Z,91.60
2018-05-02T20:19:02.568Z,91.50
2018-05-02T20:21:30.587Z,90.80
2018-05-02T20:23:58.698Z,90.80
2018-05-02T20:26:27.552Z,91.10
2018-05-02T20:28:55.658Z,91.10
2018-05-02T20:31:23.741Z,91.90
2018-05-02T20:33:51.875Z,91.30
2018-05-02T20:36:19.959Z,91.20
2018-05-02T20:38:48.043Z,90.50
2018-05-02T20:41:16.146Z,90.40
2018-05-02T20:43:44.240Z,90.80
2018-05-02T20:46:12.336Z,89.30
2018-05-02T20:48:40.452Z,89.70
2018-05-02T20:51:09.328Z,89.50
2018-05-02T20:53:37.460Z,89.30
2018-05-02T20:56:06.112Z,89.50
2018-05-02T20:58:36.415Z,87.30
2018-05-02T21:01:05.391Z,87.20
2018-05-02T21:03:34.253Z,87.60
2018-05-02T21:06:02.360Z,87.60
2018-05-02T21:08:30.481Z,87.70
2018-05-02T21:10:58.641Z,87.40
2018-05-02T21:13:26.773Z,86.70
2018-05-02T21:15:54.881Z,87.40
2018-05-02T21:18:23.027Z,87.40
2018-05-02T21:20:51.183Z,88.10
2018-05-02T21:23:19.265Z,86.40
2018-05-02T21:25:48.221Z,87.30
2018-05-02T21:28:16.401Z,87.20
2018-05-02T21:30:44.425Z,87.90
2018-05-02T21:33:12.553Z,87.10
2018-05-02T21:35:40.668Z,86.70
2018-05-02T21:38:08.792Z,85.70
2018-05-02T21:40:36.950Z,85.90
2018-05-02T21:43:05.094Z,84.80
2018-05-02T21:45:33.241Z,85.40
2018-05-02T21:48:01.354Z,85.80
2018-05-02T21:50:29.496Z,86.60
2018-05-02T21:52:57.621Z,86.00
2018-05-02T21:55:26.499Z,86.60
2018-05-02T21:57:54.597Z,86.50
2018-05-02T22:00:23.437Z,85.20
2018-05-02T22:02:51.537Z,85.20
2018-05-02T22:05:19.662Z,85.60
2018-05-02T22:07:47.729Z,85.60
2018-05-02T22:10:15.858Z,85.00
2018-05-02T22:12:43.951Z,85.20
2018-05-02T22:15:12.052Z,85.50
2018-05-02T22:17:40.212Z,86.10
2018-05-02T22:20:09.070Z,88.50
2018-05-02T22:22:37.165Z,88.50
2018-05-02T22:25:05.263Z,89.40
2018-05-02T22:27:34.132Z,91.50
2018-05-02T22:30:02.227Z,91.10
2018-05-02T22:32:30.325Z,91.60
2018-05-02T22:34:58.472Z,92.50
2018-05-02T22:37:26.576Z,92.30
2018-05-02T22:39:54.712Z,92.90
2018-05-02T22:42:23.551Z,93.80
2018-05-02T22:44:51.626Z,93.70
2018-05-02T22:47:19.718Z,93.90
2018-05-02T22:49:47.817Z,94.20
2018-05-02T22:52:15.911Z,93.70
2018-05-02T22:54:44.017Z,93.90
2018-05-02T22:57:12.862Z,94.30
2018-05-02T22:59:40.981Z,94.00
2018-05-02T23:02:09.067Z,94.90
2018-05-02T23:04:37.937Z,95.20
2018-05-02T23:07:06.052Z,94.80
2018-05-02T23:09:34.154Z,94.90
2018-05-02T23:12:02.264Z,94.70
2018-05-02T23:14:31.119Z,94.80
2018-05-02T23:16:59.220Z,94.80
2018-05-02T23:19:27.306Z,95.30
2018-05-02T23:21:55.427Z,95.00
2018-05-02T23:24:23.534Z,95.00
2018-05-02T23:26:51.638Z,94.50
2018-05-02T23:29:19.742Z,94.50
2018-05-02T23:31:47.844Z,94.20
2018-05-02T23:34:15.969Z,93.90
2018-05-02T23:36:44.057Z,93.90
2018-05-02T23:39:12.192Z,93.90
2018-05-02T23:41:40.313Z,93.70
2018-05-02T23:44:08.417Z,93.90
2018-05-02T23:46:36.576Z,93.70
2018-05-02T23:49:05.439Z,94.10
2018-05-02T23:51:33.549Z,94.00
2018-05-02T23:54:01.702Z,94.20
2018-05-02T23:56:29.814Z,94.20
2018-05-02T23:58:57.919Z,93.40
